createdAt,value
2017-09-27T00:00:34.493Z,73.70
2017-09-27T00:03:00.906Z,73.60
2017-09-27T00:05:27.327Z,73.40
2017-09-27T00:07:53.745Z,73.50
2017-09-27T00:10:20.189Z,73.50
2017-09-27T00:12:46.621Z,73.20
2017-09-27T00:15:13.046Z,72.80
2017-09-27T00:17:39.453Z,72.10
2017-09-27T00:20:06.620Z,73.00
2017-09-27T00:22:33.861Z,73.80
2017-09-27T00:25:01.004Z,73.70
2017-09-27T00:27:28.237Z,74.10
2017-09-27T00:29:55.389Z,73.40
2017-09-27T00:32:21.778Z,73.40
2017-09-27T00:34:48.276Z,73.80
2017-09-27T00:37:15.445Z,73.60
2017-09-27T00:39:41.958Z,73.50
2017-09-27T00:42:09.130Z,73.70
2017-09-27T00:44:35.589Z,73.60
2017-09-27T00:47:02.025Z,73.10
2017-09-27T00:49:28.492Z,72.50
2017-09-27T00:51:56.432Z,71.60
2017-09-27T00:54:22.853Z,71.60
2017-09-27T00:56:49.321Z,71.60
2017-09-27T00:59:15.795Z,71.20
2017-09-27T01:01:42.956Z,72.00
2017-09-27T01:04:09.386Z,72.60
2017-09-27T01:06:35.818Z,72.20
2017-09-27T01:09:02.353Z,73.10
2017-09-27T01:11:28.779Z,73.60
2017-09-27T01:13:55.910Z,73.20
2017-09-27T01:16:22.365Z,73.10
2017-09-27T01:18:49.564Z,73.30
2017-09-27T01:21:16.014Z,73.30
2017-09-27T01:23:42.455Z,73.10
2017-09-27T01:26:08.885Z,73.20
2017-09-27T01:28:35.324Z,73.00
2017-09-27T01:31:01.788Z,72.20
2017-09-27T01:33:34.249Z,71.90
2017-09-27T01:36:01.444Z,71.90
2017-09-27T01:38:27.875Z,71.20
2017-09-27T01:40:54.449Z,71.20
2017-09-27T01:43:21.665Z,72.40
2017-09-27T01:45:48.104Z,71.80
2017-09-27T01:48:14.580Z,72.30
2017-09-27T01:50:41.762Z,73.70
2017-09-27T01:53:08.288Z,73.70
2017-09-27T01:55:34.763Z,73.20
2017-09-27T01:58:01.216Z,73.40
2017-09-27T02:00:27.636Z,73.70
2017-09-27T02:02:55.568Z,73.20
2017-09-27T02:05:21.994Z,73.10
2017-09-27T02:07:48.433Z,73.40
2017-09-27T02:10:14.857Z,72.80
2017-09-27T02:12:41.269Z,73.50
2017-09-27T02:15:08.417Z,73.30
2017-09-27T02:17:35.616Z,73.40
2017-09-27T02:20:02.021Z,73.40
2017-09-27T02:22:28.450Z,73.10
2017-09-27T02:24:54.857Z,73.30
2017-09-27T02:27:21.241Z,73.60
2017-09-27T02:29:47.706Z,73.90
2017-09-27T02:32:14.163Z,73.80
2017-09-27T02:34:41.301Z,73.60
2017-09-27T02:37:09.200Z,73.50
2017-09-27T02:39:35.579Z,73.40
2017-09-27T02:42:01.960Z,73.60
2017-09-27T02:44:28.343Z,73.20
2017-09-27T02:46:54.790Z,73.60
2017-09-27T02:49:21.184Z,73.80
2017-09-27T02:51:47.634Z,73.80
2017-09-27T02:54:14.061Z,73.90
2017-09-27T02:56:40.488Z,74.10
2017-09-27T02:59:06.953Z,74.20
2017-09-27T03:01:33.421Z,74.30
2017-09-27T03:03:59.812Z,74.30
2017-09-27T03:06:26.981Z,74.30
2017-09-27T03:08:53.368Z,74.30
2017-09-27T03:11:19.762Z,73.80
2017-09-27T03:13:46.960Z,73.60
2017-09-27T03:16:13.362Z,73.60
2017-09-27T03:18:39.796Z,73.70
2017-09-27T03:21:06.173Z,74.00
2017-09-27T03:23:32.602Z,73.90
2017-09-27T03:25:59.004Z,74.60
2017-09-27T03:28:25.409Z,74.40
2017-09-27T03:30:51.820Z,75.10
2017-09-27T03:33:18.264Z,75.60
2017-09-27T03:35:45.410Z,74.90
2017-09-27T03:38:12.547Z,74.70
2017-09-27T03:40:38.949Z,74.50
2017-09-27T03:43:05.350Z,74.90
2017-09-27T03:45:31.732Z,75.80
2017-09-27T03:47:58.113Z,75.80
2017-09-27T03:50:24.550Z,75.40
2017-09-27T03:52:57.185Z,75.80
2017-09-27T03:55:24.338Z,76.20
2017-09-27T03:57:50.768Z,76.10
2017-09-27T04:00:18.301Z,76.10
2017-09-27T04:02:44.692Z,76.60
2017-09-27T04:05:11.930Z,76.60
2017-09-27T04:07:39.080Z,77.30
2017-09-27T04:10:06.209Z,76.90
2017-09-27T04:12:32.601Z,76.90
2017-09-27T04:14:59.006Z,76.90
2017-09-27T04:17:25.428Z,77.50
2017-09-27T04:19:52.556Z,77.30
2017-09-27T04:22:19.840Z,77.80
2017-09-27T04:24:46.989Z,77.70
2017-09-27T04:27:13.401Z,77.70
2017-09-27T04:29:39.792Z,77.60
2017-09-27T04:32:06.181Z,77.40
2017-09-27T04:34:33.328Z,77.50
2017-09-27T04:36:59.748Z,77.50
2017-09-27T04:39:26.145Z,77.70
2017-09-27T04:41:52.573Z,77.90
2017-09-27T04:44:18.986Z,77.90
2017-09-27T04:46:45.399Z,77.90
2017-09-27T04:49:11.889Z,78.10
2017-09-27T04:51:39.086Z,78.60
2017-09-27T04:54:05.496Z,78.50
2017-09-27T04:56:31.901Z,78.50
2017-09-27T04:58:58.315Z,77.90
2017-09-27T05:01:24.835Z,77.80
2017-09-27T05:03:51.298Z,77.90
2017-09-27T05:06:17.722Z,77.80
2017-09-27T05:08:44.122Z,78.10
2017-09-27T05:11:10.557Z,78.10
2017-09-27T05:13:36.981Z,78.30
2017-09-27T05:16:03.390Z,78.30
2017-09-27T05:18:30.570Z,78.80
2017-09-27T05:20:56.965Z,78.20
2017-09-27T05:23:23.401Z,78.10
2017-09-27T05:25:49.815Z,78.10
2017-09-27T05:28:16.230Z,77.90
2017-09-27T05:30:42.818Z,78.30
2017-09-27T05:33:09.969Z,78.20
2017-09-27T05:35:37.123Z,78.20
2017-09-27T05:38:04.299Z,78.50
2017-09-27T05:40:30.698Z,78.40
2017-09-27T05:42:57.863Z,78.90
2017-09-27T05:45:24.279Z,78.90
2017-09-27T05:47:51.450Z,77.70
2017-09-27T05:50:17.920Z,77.70
2017-09-27T05:52:44.361Z,78.30
2017-09-27T05:55:10.788Z,78.50
2017-09-27T05:57:37.260Z,78.40
2017-09-27T06:00:04.435Z,78.70
2017-09-27T06:02:30.859Z,78.70
2017-09-27T06:04:58.060Z,78.60
2017-09-27T06:07:24.456Z,78.50
2017-09-27T06:09:50.917Z,78.30
2017-09-27T06:12:18.721Z,78.50
2017-09-27T06:14:45.889Z,78.60
2017-09-27T06:17:12.300Z,78.60
2017-09-27T06:19:38.704Z,78.20
2017-09-27T06:22:05.116Z,78.40
2017-09-27T06:24:31.528Z,78.00
2017-09-27T06:26:57.961Z,77.80
2017-09-27T06:29:24.398Z,77.80
2017-09-27T06:31:50.825Z,77.30
2017-09-27T06:34:17.254Z,77.70
2017-09-27T06:36:43.744Z,77.40
2017-09-27T06:39:10.202Z,77.10
2017-09-27T06:41:37.390Z,77.20
2017-09-27T06:44:03.803Z,77.20
2017-09-27T06:46:30.296Z,76.90
2017-09-27T06:48:56.727Z,77.10
2017-09-27T06:51:23.167Z,77.00
2017-09-27T06:53:49.598Z,77.10
2017-09-27T06:56:15.997Z,76.70
2017-09-27T06:58:42.419Z,76.80
2017-09-27T07:01:08.878Z,76.20
2017-09-27T07:03:35.291Z,76.40
2017-09-27T07:06:01.773Z,75.50
2017-09-27T07:08:28.203Z,75.80
2017-09-27T07:10:56.114Z,75.80
2017-09-27T07:13:22.562Z,75.80
2017-09-27T07:15:48.987Z,75.20
2017-09-27T07:18:15.378Z,74.50
2017-09-27T07:20:41.883Z,73.90
2017-09-27T07:23:08.357Z,73.30
2017-09-27T07:25:35.500Z,73.80
2017-09-27T07:28:02.634Z,71.90
2017-09-27T07:30:29.062Z,72.50
2017-09-27T07:32:55.536Z,70.60
2017-09-27T07:35:22.024Z,71.30
2017-09-27T07:37:48.418Z,70.00
2017-09-27T07:40:14.845Z,71.10
2017-09-27T07:42:41.353Z,71.30
2017-09-27T07:45:08.497Z,70.60
2017-09-27T07:47:36.380Z,70.10
2017-09-27T07:50:03.551Z,69.00
2017-09-27T07:52:29.988Z,68.90
2017-09-27T07:54:56.391Z,69.50
2017-09-27T07:57:23.537Z,70.80
2017-09-27T07:59:50.684Z,70.40
2017-09-27T08:02:17.899Z,68.70
2017-09-27T08:04:44.342Z,68.50
2017-09-27T08:07:10.728Z,69.00
2017-09-27T08:09:37.137Z,69.30
2017-09-27T08:12:03.560Z,70.00
2017-09-27T08:14:30.013Z,69.50
2017-09-27T08:16:57.161Z,70.80
2017-09-27T08:19:24.304Z,71.40
2017-09-27T08:21:51.483Z,71.10
2017-09-27T08:24:17.937Z,71.10
2017-09-27T08:26:50.469Z,70.90
2017-09-27T08:29:17.653Z,70.30
2017-09-27T08:31:44.089Z,70.30
2017-09-27T08:34:10.508Z,70.20
2017-09-27T08:36:36.901Z,70.80
2017-09-27T08:39:03.431Z,70.10
2017-09-27T08:41:29.851Z,71.60
2017-09-27T08:43:56.245Z,71.30
2017-09-27T08:46:22.724Z,71.30
2017-09-27T08:48:49.158Z,70.80
2017-09-27T08:51:15.571Z,70.50
2017-09-27T08:53:41.985Z,70.20
2017-09-27T08:56:08.392Z,70.70
2017-09-27T08:58:35.516Z,70.90
2017-09-27T09:01:01.921Z,70.90
2017-09-27T09:03:28.317Z,70.90
2017-09-27T09:05:54.721Z,70.40
2017-09-27T09:08:21.093Z,71.60
2017-09-27T09:10:47.484Z,71.10
2017-09-27T09:13:13.886Z,70.80
2017-09-27T09:15:40.298Z,71.00
2017-09-27T09:18:06.688Z,72.00
2017-09-27T09:20:33.057Z,71.40
2017-09-27T09:22:59.433Z,71.80
2017-09-27T09:25:25.802Z,70.80
2017-09-27T09:27:52.938Z,70.40
2017-09-27T09:30:20.130Z,70.30
2017-09-27T09:32:46.502Z,70.20
2017-09-27T09:35:12.938Z,70.20
2017-09-27T09:37:40.127Z,69.60
2017-09-27T09:40:06.525Z,69.60
2017-09-27T09:42:33.669Z,69.70
2017-09-27T09:45:00.081Z,69.30
2017-09-27T09:47:26.563Z,68.80
2017-09-27T09:49:52.971Z,67.00
2017-09-27T09:52:20.158Z,67.40
2017-09-27T09:54:46.554Z,67.40
2017-09-27T09:57:12.947Z,68.00
2017-09-27T09:59:39.359Z,68.50
2017-09-27T10:02:05.850Z,68.50
2017-09-27T10:04:33.014Z,67.20
2017-09-27T10:07:00.157Z,65.90
2017-09-27T10:09:26.549Z,65.80
2017-09-27T10:11:52.948Z,66.30
2017-09-27T10:14:19.313Z,66.20
2017-09-27T10:16:45.699Z,64.60
2017-09-27T10:19:12.835Z,62.60
2017-09-27T10:21:39.220Z,62.60
2017-09-27T10:24:05.623Z,62.00
2017-09-27T10:26:32.025Z,61.30
2017-09-27T10:28:58.414Z,62.10
2017-09-27T10:31:24.838Z,59.40
2017-09-27T10:33:51.228Z,59.10
2017-09-27T10:36:17.652Z,59.70
2017-09-27T10:38:45.561Z,57.60
2017-09-27T10:41:11.981Z,57.60
2017-09-27T10:43:38.392Z,58.60
2017-09-27T10:46:06.256Z,57.80
2017-09-27T10:48:34.162Z,57.90
2017-09-27T10:51:00.545Z,57.80
2017-09-27T10:53:26.925Z,58.50
2017-09-27T10:55:53.296Z,57.80
2017-09-27T10:58:19.673Z,57.80
2017-09-27T11:00:46.809Z,56.70
2017-09-27T11:03:13.953Z,57.00
2017-09-27T11:05:41.156Z,57.00
2017-09-27T11:08:07.549Z,56.80
2017-09-27T11:10:34.662Z,56.60
2017-09-27T11:13:01.045Z,56.30
2017-09-27T11:15:27.450Z,55.90
2017-09-27T11:17:53.921Z,56.60
2017-09-27T11:20:20.725Z,56.40
2017-09-27T11:22:47.108Z,56.00
2017-09-27T11:25:13.508Z,56.50
2017-09-27T11:27:40.641Z,56.20
2017-09-27T11:30:07.041Z,56.80
2017-09-27T11:32:33.457Z,56.80
2017-09-27T11:34:59.827Z,56.50
2017-09-27T11:37:26.234Z,56.20
2017-09-27T11:39:53.107Z,55.50
2017-09-27T11:42:19.524Z,55.30
2017-09-27T11:44:45.913Z,55.90
2017-09-27T11:47:13.040Z,55.70
2017-09-27T11:49:40.188Z,55.70
2017-09-27T11:52:07.321Z,55.40
2017-09-27T11:54:33.722Z,55.50
2017-09-27T11:57:00.169Z,55.40
2017-09-27T11:59:26.575Z,55.70
2017-09-27T12:01:52.969Z,55.90
2017-09-27T12:04:20.144Z,55.90
2017-09-27T12:06:46.512Z,56.20
2017-09-27T12:09:12.917Z,56.30
2017-09-27T12:11:39.369Z,56.60
2017-09-27T12:14:05.805Z,56.80
2017-09-27T12:16:32.207Z,56.10
2017-09-27T12:18:58.620Z,56.50
2017-09-27T12:21:25.745Z,57.00
2017-09-27T12:23:52.131Z,56.90
2017-09-27T12:26:18.536Z,56.70
2017-09-27T12:28:45.651Z,56.90
2017-09-27T12:31:12.045Z,56.90
2017-09-27T12:33:38.471Z,56.70
2017-09-27T12:36:04.860Z,56.70
2017-09-27T12:38:32.737Z,57.30
2017-09-27T12:40:59.139Z,57.10
2017-09-27T12:43:25.537Z,58.00
2017-09-27T12:45:52.069Z,57.70
2017-09-27T12:48:18.477Z,57.90
2017-09-27T12:50:45.604Z,58.30
2017-09-27T12:53:13.457Z,58.60
2017-09-27T12:55:39.856Z,58.50
2017-09-27T12:58:06.221Z,59.10
2017-09-27T13:00:32.591Z,59.00
2017-09-27T13:02:59.785Z,59.20
2017-09-27T13:05:26.166Z,59.00
2017-09-27T13:07:52.563Z,59.30
2017-09-27T13:10:18.962Z,60.20
2017-09-27T13:12:45.341Z,58.90
2017-09-27T13:15:11.724Z,59.00
2017-09-27T13:17:38.109Z,59.10
2017-09-27T13:20:04.502Z,59.20
2017-09-27T13:22:30.875Z,59.80
2017-09-27T13:24:57.270Z,60.30
2017-09-27T13:27:23.717Z,60.10
2017-09-27T13:29:50.127Z,59.80
2017-09-27T13:32:16.526Z,59.20
2017-09-27T13:34:43.673Z,59.40
2017-09-27T13:37:10.823Z,59.60
2017-09-27T13:39:37.247Z,59.60
2017-09-27T13:42:03.662Z,59.70
2017-09-27T13:44:30.031Z,60.40
2017-09-27T13:46:57.284Z,59.90
2017-09-27T13:49:24.444Z,59.90
2017-09-27T13:51:51.745Z,60.20
2017-09-27T13:54:19.673Z,60.50
2017-09-27T13:56:46.064Z,60.50
2017-09-27T13:59:12.458Z,60.70
2017-09-27T14:01:38.844Z,61.20
2017-09-27T14:04:05.963Z,61.20
2017-09-27T14:06:32.362Z,61.10
2017-09-27T14:08:58.760Z,61.00
2017-09-27T14:11:25.894Z,61.40
2017-09-27T14:13:52.302Z,60.60
2017-09-27T14:16:18.700Z,60.40
2017-09-27T14:18:45.237Z,60.80
2017-09-27T14:21:11.634Z,61.10
2017-09-27T14:23:38.022Z,61.30
2017-09-27T14:26:04.415Z,61.50
2017-09-27T14:28:31.555Z,61.20
2017-09-27T14:30:57.935Z,61.20
2017-09-27T14:33:24.321Z,61.30
2017-09-27T14:35:50.703Z,61.30
2017-09-27T14:38:17.108Z,61.30
2017-09-27T14:40:43.480Z,61.00
2017-09-27T14:43:09.878Z,60.80
2017-09-27T14:45:36.266Z,60.70
2017-09-27T14:48:02.721Z,61.00
2017-09-27T14:50:29.878Z,60.90
2017-09-27T14:52:57.083Z,61.70
2017-09-27T14:55:23.537Z,61.60
2017-09-27T14:57:49.908Z,61.60
2017-09-27T15:00:16.293Z,61.90
2017-09-27T15:02:44.206Z,62.20
2017-09-27T15:05:10.594Z,62.20
2017-09-27T15:07:37.003Z,61.80
2017-09-27T15:10:03.423Z,61.40
2017-09-27T15:12:29.874Z,61.50
2017-09-27T15:14:56.240Z,62.00
2017-09-27T15:17:22.621Z,62.20
2017-09-27T15:19:49.033Z,62.40
2017-09-27T15:22:15.507Z,62.10
2017-09-27T15:24:41.882Z,62.10
2017-09-27T15:27:09.047Z,62.20
2017-09-27T15:29:35.449Z,62.20
2017-09-27T15:32:02.600Z,62.20
2017-09-27T15:34:30.518Z,62.20
2017-09-27T15:36:56.932Z,62.20
2017-09-27T15:39:23.347Z,61.60
2017-09-27T15:41:50.507Z,61.00
2017-09-27T15:44:17.657Z,61.40
2017-09-27T15:46:44.785Z,61.70
2017-09-27T15:49:11.953Z,62.00
2017-09-27T15:51:39.115Z,62.20
2017-09-27T15:54:05.534Z,62.20
2017-09-27T15:56:32.687Z,62.50
2017-09-27T15:58:59.904Z,62.70
2017-09-27T16:01:26.300Z,62.70
2017-09-27T16:03:52.820Z,62.30
2017-09-27T16:06:19.215Z,62.40
2017-09-27T16:08:45.597Z,62.50
2017-09-27T16:11:11.980Z,62.40
2017-09-27T16:13:39.902Z,62.00
2017-09-27T16:16:06.339Z,61.90
2017-09-27T16:18:32.756Z,61.90
2017-09-27T16:20:59.180Z,62.40
2017-09-27T16:23:25.660Z,62.90
2017-09-27T16:25:52.083Z,63.60
2017-09-27T16:28:18.567Z,63.70
2017-09-27T16:30:45.714Z,64.30
2017-09-27T16:33:12.854Z,65.00
2017-09-27T16:35:39.974Z,65.40
2017-09-27T16:38:06.435Z,65.10
2017-09-27T16:40:32.832Z,65.00
2017-09-27T16:42:59.237Z,65.50
2017-09-27T16:45:25.633Z,64.90
2017-09-27T16:47:53.500Z,64.70
2017-09-27T16:50:19.912Z,64.70
2017-09-27T16:52:46.325Z,64.30
2017-09-27T16:55:12.752Z,65.10
2017-09-27T16:57:39.167Z,64.30
2017-09-27T17:00:05.572Z,64.20
2017-09-27T17:02:32.836Z,64.30
2017-09-27T17:04:59.998Z,65.50
2017-09-27T17:07:26.397Z,64.80
2017-09-27T17:09:52.822Z,64.80
2017-09-27T17:12:19.340Z,64.80
2017-09-27T17:14:45.766Z,65.00
2017-09-27T17:17:12.165Z,64.90
2017-09-27T17:19:39.390Z,65.00
2017-09-27T17:22:05.836Z,65.00
2017-09-27T17:24:33.042Z,65.10
2017-09-27T17:26:59.449Z,65.00
2017-09-27T17:29:25.846Z,65.20
2017-09-27T17:31:53.034Z,66.00
2017-09-27T17:34:19.450Z,66.00
2017-09-27T17:36:45.854Z,65.80
2017-09-27T17:39:12.277Z,66.00
2017-09-27T17:41:38.654Z,65.70
2017-09-27T17:44:05.045Z,66.20
2017-09-27T17:46:31.459Z,66.10
2017-09-27T17:48:57.855Z,66.20
2017-09-27T17:51:24.261Z,66.20
2017-09-27T17:53:51.426Z,66.80
2017-09-27T17:56:17.859Z,66.80
2017-09-27T17:58:44.324Z,67.00
2017-09-27T18:01:10.732Z,67.90
2017-09-27T18:03:37.198Z,67.00
2017-09-27T18:06:05.525Z,66.60
2017-09-27T18:08:38.706Z,66.70
2017-09-27T18:11:12.943Z,66.60
2017-09-27T18:13:46.045Z,67.50
2017-09-27T18:16:18.476Z,67.50
2017-09-27T18:18:44.894Z,67.20
2017-09-27T18:21:11.374Z,67.70
2017-09-27T18:23:37.807Z,67.70
2017-09-27T18:26:04.317Z,67.60
2017-09-27T18:28:31.464Z,67.10
2017-09-27T18:30:57.868Z,67.00
2017-09-27T18:33:24.280Z,67.00
2017-09-27T18:35:50.692Z,67.20
2017-09-27T18:38:17.117Z,67.30
2017-09-27T18:40:44.281Z,67.10
2017-09-27T18:43:10.750Z,67.10
2017-09-27T18:45:37.148Z,67.20
2017-09-27T18:48:03.543Z,67.10
2017-09-27T18:50:29.977Z,67.20
2017-09-27T18:52:56.485Z,67.30
2017-09-27T18:55:22.908Z,67.10
2017-09-27T18:57:50.058Z,67.60
2017-09-27T19:00:16.490Z,67.40
2017-09-27T19:02:42.935Z,67.40
2017-09-27T19:05:09.375Z,67.50
2017-09-27T19:07:35.769Z,67.90
2017-09-27T19:10:02.196Z,67.90
2017-09-27T19:12:28.590Z,68.10
2017-09-27T19:14:55.008Z,68.00
2017-09-27T19:17:21.464Z,68.00
2017-09-27T19:19:48.611Z,68.70
2017-09-27T19:22:15.001Z,68.80
2017-09-27T19:24:41.454Z,69.40
2017-09-27T19:27:07.933Z,69.60
2017-09-27T19:29:34.372Z,69.90
2017-09-27T19:32:00.821Z,70.30
2017-09-27T19:34:27.245Z,70.40
2017-09-27T19:36:53.641Z,70.80
2017-09-27T19:39:20.792Z,71.60
2017-09-27T19:41:47.253Z,71.10
2017-09-27T19:44:13.669Z,71.40
2017-09-27T19:46:40.830Z,72.10
2017-09-27T19:49:07.985Z,71.90
2017-09-27T19:51:34.393Z,71.90
2017-09-27T19:54:00.776Z,71.70
2017-09-27T19:56:27.183Z,71.60
2017-09-27T19:58:54.336Z,71.20
2017-09-27T20:01:20.723Z,71.30
2017-09-27T20:03:47.205Z,71.00
2017-09-27T20:06:13.614Z,70.80
2017-09-27T20:08:40.759Z,70.50
2017-09-27T20:11:07.215Z,70.60
2017-09-27T20:13:33.647Z,70.50
2017-09-27T20:16:00.084Z,70.40
2017-09-27T20:18:26.541Z,70.20
2017-09-27T20:20:54.039Z,70.10
2017-09-27T20:23:20.457Z,70.10
2017-09-27T20:25:46.832Z,70.00
2017-09-27T20:28:13.981Z,69.90
2017-09-27T20:30:41.303Z,70.10
2017-09-27T20:33:07.782Z,70.10
2017-09-27T20:35:36.677Z,70.00
2017-09-27T20:38:03.087Z,70.00
2017-09-27T20:40:30.231Z,70.10
2017-09-27T20:42:57.380Z,70.00
2017-09-27T20:45:24.508Z,70.40
2017-09-27T20:47:50.886Z,70.40
2017-09-27T20:50:17.295Z,70.30
2017-09-27T20:52:44.463Z,70.40
2017-09-27T20:55:10.865Z,70.40
2017-09-27T20:57:37.272Z,70.70
2017-09-27T21:00:03.670Z,71.20
2017-09-27T21:02:30.090Z,71.40
2017-09-27T21:04:56.524Z,71.40
2017-09-27T21:07:23.778Z,71.30
2017-09-27T21:09:50.925Z,71.80
2017-09-27T21:12:18.111Z,71.80
2017-09-27T21:14:44.552Z,71.70
2017-09-27T21:17:10.959Z,72.10
2017-09-27T21:19:37.412Z,71.90
2017-09-27T21:22:03.918Z,71.30
2017-09-27T21:24:30.325Z,71.50
2017-09-27T21:26:57.520Z,71.90
2017-09-27T21:29:23.934Z,71.20
2017-09-27T21:31:52.018Z,71.20
2017-09-27T21:34:18.448Z,71.20
2017-09-27T21:36:44.906Z,72.10
2017-09-27T21:39:11.464Z,72.10
2017-09-27T21:41:37.861Z,71.70
2017-09-27T21:44:04.282Z,71.60
2017-09-27T21:46:30.702Z,71.40
2017-09-27T21:48:57.089Z,71.60
2017-09-27T21:51:23.555Z,71.40
2017-09-27T21:53:50.707Z,71.60
2017-09-27T21:56:17.849Z,71.70
2017-09-27T21:58:45.038Z,72.00
2017-09-27T22:01:11.444Z,71.90
2017-09-27T22:03:37.930Z,71.80
2017-09-27T22:06:04.327Z,72.00
2017-09-27T22:08:30.914Z,72.20
2017-09-27T22:10:58.796Z,72.20
2017-09-27T22:13:25.257Z,72.20
2017-09-27T22:15:51.689Z,72.20
2017-09-27T22:18:18.103Z,72.10
2017-09-27T22:20:45.239Z,72.20
2017-09-27T22:23:11.661Z,72.30
2017-09-27T22:25:38.048Z,72.40
2017-09-27T22:28:04.460Z,72.80
2017-09-27T22:30:31.585Z,72.80
2017-09-27T22:32:58.058Z,72.80
2017-09-27T22:35:24.452Z,72.70
2017-09-27T22:37:50.956Z,72.50
2017-09-27T22:40:17.391Z,72.90
2017-09-27T22:42:43.786Z,72.80
2017-09-27T22:45:10.206Z,73.00
2017-09-27T22:47:37.372Z,73.00
2017-09-27T22:50:03.781Z,73.00
2017-09-27T22:52:30.960Z,72.90
2017-09-27T22:54:57.362Z,73.00
2017-09-27T22:57:24.507Z,73.40
2017-09-27T22:59:50.893Z,73.30
2017-09-27T23:02:17.324Z,73.70
2017-09-27T23:04:43.740Z,74.10
2017-09-27T23:07:10.169Z,74.20
2017-09-27T23:09:36.572Z,74.50
2017-09-27T23:12:02.976Z,74.80
2017-09-27T23:14:29.390Z,75.40
2017-09-27T23:16:56.052Z,74.80
2017-09-27T23:19:22.442Z,74.90
2017-09-27T23:21:48.864Z,74.90
2017-09-27T23:24:15.271Z,74.80
2017-09-27T23:26:42.410Z,74.80
2017-09-27T23:29:08.843Z,74.80
2017-09-27T23:31:36.008Z,74.40
2017-09-27T23:34:03.221Z,74.30
2017-09-27T23:36:29.648Z,74.30
2017-09-27T23:38:56.054Z,74.90
2017-09-27T23:41:22.457Z,74.90
2017-09-27T23:43:49.698Z,75.00
2017-09-27T23:46:16.870Z,75.10
2017-09-27T23:48:44.023Z,75.00
2017-09-27T23:51:11.181Z,75.00
2017-09-27T23:53:37.599Z,74.90
2017-09-27T23:56:04.725Z,75.20
2017-09-27T23:58:31.192Z,75.20
